createdAt,value
2018-09-05T00:02:09.689Z,13.57
2018-09-05T00:04:38.865Z,12.80
2018-09-05T00:07:09.115Z,13.90
2018-09-05T00:09:38.953Z,13.67
2018-09-05T00:12:08.591Z,13.30
2018-09-05T00:14:38.851Z,13.50
2018-09-05T00:17:10.399Z,14.57
2018-09-05T00:19:39.829Z,13.70
2018-09-05T00:22:09.011Z,13.47
2018-09-05T00:24:39.117Z,13.70
2018-09-05T00:27:08.286Z,13.47
2018-09-05T00:29:37.610Z,14.03
2018-09-05T00:32:07.569Z,14.33
2018-09-05T00:34:37.156Z,14.20
2018-09-05T00:37:06.355Z,14.27
2018-09-05T00:39:35.720Z,14.57
2018-09-05T00:42:05.638Z,14.20
2018-09-05T00:44:35.776Z,14.47
2018-09-05T00:47:05.685Z,14.33
2018-09-05T00:49:36.687Z,14.33
2018-09-05T00:52:05.918Z,14.03
2018-09-05T00:54:36.913Z,14.57
2018-09-05T00:57:06.372Z,14.73
2018-09-05T00:59:35.365Z,14.50
2018-09-05T01:02:05.319Z,15.80
2018-09-05T01:04:34.169Z,14.93
2018-09-05T01:07:12.923Z,14.67
2018-09-05T01:09:41.928Z,15.10
2018-09-05T01:12:10.841Z,15.10
2018-09-05T01:14:39.923Z,14.70
2018-09-05T01:17:09.221Z,14.50
2018-09-05T01:19:38.590Z,14.97
2018-09-05T01:22:07.549Z,15.90
2018-09-05T01:24:36.839Z,15.17
2018-09-05T01:27:07.441Z,14.83
2018-09-05T01:29:38.487Z,15.47
2018-09-05T01:32:08.180Z,15.73
2018-09-05T01:34:38.116Z,15.50
2018-09-05T01:37:08.085Z,16.00
2018-09-05T01:39:37.333Z,15.40
2018-09-05T01:42:07.304Z,15.67
2018-09-05T01:44:37.047Z,15.13
2018-09-05T01:47:06.463Z,16.00
2018-09-05T01:49:36.135Z,15.07
2018-09-05T01:52:05.358Z,16.30
2018-09-05T01:54:35.854Z,16.17
2018-09-05T01:57:05.697Z,15.50
2018-09-05T01:59:34.721Z,16.50
2018-09-05T02:02:03.977Z,18.10
2018-09-05T02:04:32.999Z,17.63
2018-09-05T02:07:02.715Z,17.80
2018-09-05T02:09:32.405Z,19.90
2018-09-05T02:12:02.661Z,19.37
2018-09-05T02:14:32.182Z,20.73
2018-09-05T02:17:02.274Z,19.40
2018-09-05T02:19:31.366Z,20.07
2018-09-05T02:22:00.498Z,21.97
2018-09-05T02:24:29.904Z,21.07
2018-09-05T02:26:59.005Z,20.30
2018-09-05T02:29:29.663Z,21.00
2018-09-05T02:31:58.624Z,20.83
2018-09-05T02:34:27.685Z,21.10
2018-09-05T02:36:57.789Z,21.80
2018-09-05T02:39:26.729Z,22.80
2018-09-05T02:41:56.166Z,22.77
2018-09-05T02:44:26.490Z,24.63
2018-09-05T02:46:56.069Z,23.23
2018-09-05T02:49:25.618Z,23.40
2018-09-05T02:51:55.774Z,24.17
2018-09-05T02:54:24.922Z,25.70
2018-09-05T02:56:54.225Z,26.13
2018-09-05T02:59:23.929Z,22.60
2018-09-05T03:01:53.393Z,24.13
2018-09-05T03:04:22.703Z,22.70
2018-09-05T03:06:51.893Z,24.37
2018-09-05T03:09:20.865Z,24.60
2018-09-05T03:11:50.467Z,24.00
2018-09-05T03:14:19.454Z,23.50
2018-09-05T03:16:49.099Z,26.70
2018-09-05T03:19:18.014Z,27.07
2018-09-05T03:21:47.033Z,24.30
2018-09-05T03:24:16.375Z,26.47
2018-09-05T03:26:45.720Z,25.03
2018-09-05T03:29:16.519Z,26.27
2018-09-05T03:31:45.564Z,27.03
2018-09-05T03:34:14.818Z,23.93
2018-09-05T03:36:43.835Z,27.23
2018-09-05T03:39:13.857Z,26.27
2018-09-05T03:41:42.877Z,28.30
2018-09-05T03:44:11.937Z,24.97
2018-09-05T03:46:43.080Z,28.13
2018-09-05T03:49:11.946Z,26.87
2018-09-05T03:51:42.374Z,27.30
2018-09-05T03:54:12.147Z,25.43
2018-09-05T03:56:42.016Z,26.57
2018-09-05T03:59:11.570Z,27.33
2018-09-05T04:01:42.595Z,26.33
2018-09-05T04:04:11.952Z,27.17
2018-09-05T04:06:41.102Z,26.23
2018-09-05T04:09:11.147Z,25.60
2018-09-05T04:11:40.631Z,26.17
2018-09-05T04:14:10.674Z,26.80
2018-09-05T04:16:41.059Z,27.83
2018-09-05T04:19:10.717Z,26.37
2018-09-05T04:21:39.897Z,27.33
2018-09-05T04:24:09.540Z,27.10
2018-09-05T04:26:39.765Z,25.93
2018-09-05T04:29:10.406Z,26.80
2018-09-05T04:31:41.099Z,27.47
2018-09-05T04:34:10.969Z,27.30
2018-09-05T04:36:40.193Z,27.80
2018-09-05T04:39:10.361Z,26.37
2018-09-05T04:41:40.167Z,27.50
2018-09-05T04:44:10.033Z,27.70
2018-09-05T04:46:39.603Z,27.53
2018-09-05T04:49:09.264Z,27.83
2018-09-05T04:51:39.204Z,27.87
2018-09-05T04:54:08.767Z,27.30
2018-09-05T04:56:38.217Z,29.17
2018-09-05T04:59:07.920Z,28.80
2018-09-05T05:01:37.763Z,28.93
2018-09-05T05:04:07.037Z,28.67
2018-09-05T05:06:36.786Z,27.43
2018-09-05T05:09:09.535Z,28.50
2018-09-05T05:11:38.564Z,28.10
2018-09-05T05:14:07.994Z,29.53
2018-09-05T05:16:37.322Z,30.00
2018-09-05T05:19:06.288Z,28.27
2018-09-05T05:21:35.973Z,28.70
2018-09-05T05:24:06.967Z,27.33
2018-09-05T05:26:36.651Z,28.20
2018-09-05T05:29:06.554Z,27.83
2018-09-05T05:31:36.274Z,28.60
2018-09-05T05:34:05.877Z,26.60
2018-09-05T05:36:34.743Z,26.60
2018-09-05T05:39:04.775Z,27.13
2018-09-05T05:41:34.186Z,26.30
2018-09-05T05:44:03.929Z,27.13
2018-09-05T05:46:33.723Z,25.90
2018-09-05T05:49:03.350Z,26.50
2018-09-05T05:51:33.624Z,25.70
2018-09-05T05:54:03.121Z,25.17
2018-09-05T05:56:32.828Z,26.80
2018-09-05T05:59:02.509Z,25.27
2018-09-05T06:01:32.633Z,24.50
2018-09-05T06:04:02.759Z,25.50
2018-09-05T06:06:32.195Z,23.93
2018-09-05T06:09:02.119Z,24.13
2018-09-05T06:11:31.543Z,23.33
2018-09-05T06:14:01.834Z,34.00
2018-09-05T06:16:31.236Z,29.00
2018-09-05T06:19:00.774Z,25.93
2018-09-05T06:21:30.102Z,30.00
2018-09-05T06:23:59.030Z,31.03
2018-09-05T06:26:28.934Z,22.63
2018-09-05T06:28:58.945Z,23.10
2018-09-05T06:31:27.844Z,21.30
2018-09-05T06:33:57.922Z,21.10
2018-09-05T06:36:26.836Z,21.97
2018-09-05T06:38:56.469Z,20.77
2018-09-05T06:41:27.781Z,22.53
2018-09-05T06:43:57.804Z,21.17
2018-09-05T06:46:27.187Z,19.80
2018-09-05T06:48:56.837Z,22.13
2018-09-05T06:51:28.308Z,20.60
2018-09-05T06:53:57.269Z,21.10
2018-09-05T06:56:26.293Z,20.53
2018-09-05T06:58:56.366Z,22.00
2018-09-05T07:01:25.305Z,24.07
2018-09-05T07:03:55.643Z,21.07
2018-09-05T07:06:24.686Z,20.67
2018-09-05T07:08:53.905Z,20.00
2018-09-05T07:11:23.688Z,20.67
2018-09-05T07:13:53.422Z,20.37
2018-09-05T07:16:22.726Z,18.73
2018-09-05T07:18:52.555Z,20.63
2018-09-05T07:21:22.266Z,21.33
2018-09-05T07:23:51.951Z,21.73
2018-09-05T07:26:21.057Z,20.47
2018-09-05T07:28:50.348Z,19.30
2018-09-05T07:31:19.871Z,19.07
2018-09-05T07:33:48.791Z,19.30
2018-09-05T07:36:19.193Z,19.07
2018-09-05T07:38:48.211Z,19.97
2018-09-05T07:41:17.839Z,19.10
2018-09-05T07:43:48.047Z,19.00
2018-09-05T07:46:17.404Z,19.17
2018-09-05T07:48:47.098Z,18.83
2018-09-05T07:51:16.484Z,20.20
2018-09-05T07:53:46.430Z,19.07
2018-09-05T07:56:15.822Z,18.47
2018-09-05T07:58:45.762Z,17.57
2018-09-05T08:01:14.727Z,18.70
2018-09-05T08:03:44.301Z,17.73
2018-09-05T08:06:13.873Z,17.60
2018-09-05T08:08:43.104Z,17.80
2018-09-05T08:11:13.302Z,16.27
2018-09-05T08:13:42.126Z,16.30
2018-09-05T08:16:11.283Z,17.10
2018-09-05T08:18:40.863Z,16.10
2018-09-05T08:21:10.787Z,15.50
2018-09-05T08:23:40.553Z,16.37
2018-09-05T08:26:10.204Z,15.80
2018-09-05T08:28:39.126Z,15.60
2018-09-05T08:31:09.179Z,15.30
2018-09-05T08:33:39.819Z,15.30
2018-09-05T08:36:09.971Z,14.90
2018-09-05T08:38:40.004Z,14.87
2018-09-05T08:41:10.893Z,16.23
2018-09-05T08:43:41.203Z,14.90
2018-09-05T08:46:10.268Z,15.57
2018-09-05T08:48:39.543Z,14.50
2018-09-05T08:51:09.145Z,14.70
2018-09-05T08:53:38.703Z,13.33
2018-09-05T08:56:08.524Z,14.13
2018-09-05T08:58:37.614Z,13.40
2018-09-05T09:01:07.252Z,12.80
2018-09-05T09:03:36.763Z,14.17
2018-09-05T09:06:06.664Z,14.13
2018-09-05T09:08:37.320Z,13.47
2018-09-05T09:11:07.019Z,12.80
2018-09-05T09:13:36.954Z,13.57
2018-09-05T09:16:07.828Z,12.37
2018-09-05T09:18:38.655Z,13.40
2018-09-05T09:21:08.023Z,12.90
2018-09-05T09:23:38.525Z,13.20
2018-09-05T09:26:08.802Z,12.37
2018-09-05T09:28:37.854Z,12.70
2018-09-05T09:31:07.809Z,13.13
2018-09-05T09:33:37.382Z,14.13
2018-09-05T09:36:06.947Z,13.80
2018-09-05T09:38:35.891Z,13.60
2018-09-05T09:41:05.987Z,12.97
2018-09-05T09:43:36.177Z,12.47
2018-09-05T09:46:05.767Z,13.30
2018-09-05T09:48:35.875Z,13.10
2018-09-05T09:51:05.916Z,14.10
2018-09-05T09:53:35.095Z,12.50
2018-09-05T09:56:04.566Z,13.23
2018-09-05T09:58:35.999Z,13.47
2018-09-05T10:01:11.442Z,13.70
2018-09-05T10:03:46.348Z,12.67
2018-09-05T10:06:20.820Z,12.50
2018-09-05T10:08:55.313Z,13.33
2018-09-05T10:11:30.366Z,13.37
2018-09-05T10:14:05.507Z,13.03
2018-09-05T10:17:43.596Z,13.43
2018-09-05T10:20:12.819Z,12.90
2018-09-05T10:22:43.222Z,13.23
2018-09-05T10:25:13.468Z,12.60
2018-09-05T10:27:43.323Z,13.20
2018-09-05T10:30:13.530Z,12.93
2018-09-05T10:32:42.678Z,12.90
2018-09-05T10:35:11.933Z,13.30
2018-09-05T10:37:41.048Z,12.90
2018-09-05T10:40:09.937Z,13.50
2018-09-05T10:42:39.361Z,12.17
2018-09-05T10:45:09.315Z,13.20
2018-09-05T10:47:38.717Z,13.20
2018-09-05T10:50:08.010Z,12.87
2018-09-05T10:52:38.172Z,12.60
2018-09-05T10:55:07.060Z,13.07
2018-09-05T10:57:36.080Z,13.83
2018-09-05T11:00:06.066Z,13.93
2018-09-05T11:02:36.013Z,13.17
2018-09-05T11:05:05.623Z,13.60
2018-09-05T11:07:35.479Z,12.70
2018-09-05T11:10:04.902Z,13.23
2018-09-05T11:12:34.541Z,13.20
2018-09-05T11:15:03.477Z,12.57
2018-09-05T11:17:33.274Z,12.50
2018-09-05T11:20:02.835Z,12.37
2018-09-05T11:22:32.297Z,13.03
2018-09-05T11:25:01.631Z,12.73
2018-09-05T11:27:31.944Z,13.73
2018-09-05T11:30:01.900Z,13.50
2018-09-05T11:32:31.774Z,14.67
2018-09-05T11:35:01.239Z,13.17
2018-09-05T11:37:30.684Z,13.00
2018-09-05T11:39:59.776Z,13.47
2018-09-05T11:42:29.383Z,12.67
2018-09-05T11:45:00.137Z,12.20
2018-09-05T11:47:29.527Z,11.43
2018-09-05T11:49:59.906Z,13.10
2018-09-05T11:52:29.168Z,12.87
2018-09-05T11:54:58.656Z,12.60
2018-09-05T11:57:27.996Z,12.83
2018-09-05T11:59:58.185Z,12.07
2018-09-05T12:02:27.873Z,11.77
2018-09-05T12:04:57.456Z,12.57
2018-09-05T12:07:27.581Z,12.77
2018-09-05T12:09:57.649Z,13.07
2018-09-05T12:12:28.193Z,13.90
2018-09-05T12:14:58.084Z,12.73
2018-09-05T12:17:28.107Z,12.00
2018-09-05T12:19:57.977Z,12.70
2018-09-05T12:22:28.544Z,36.30
2018-09-05T12:24:58.428Z,19.43
2018-09-05T12:27:27.480Z,12.30
2018-09-05T12:29:56.903Z,12.07
2018-09-05T12:32:26.356Z,12.17
2018-09-05T12:34:55.106Z,12.37
2018-09-05T12:37:23.970Z,12.90
2018-09-05T12:39:53.951Z,11.60
2018-09-05T12:42:23.595Z,23.90
2018-09-05T12:44:53.598Z,14.70
2018-09-05T12:47:23.925Z,13.50
2018-09-05T12:49:53.104Z,11.60
2018-09-05T12:52:23.337Z,13.40
2018-09-05T12:54:52.305Z,12.63
2018-09-05T12:57:22.092Z,12.03
2018-09-05T12:59:51.732Z,12.10
2018-09-05T13:02:21.762Z,12.80
2018-09-05T13:04:52.065Z,12.70
2018-09-05T13:07:21.298Z,13.13
2018-09-05T13:09:51.332Z,12.10
2018-09-05T13:12:21.835Z,23.10
2018-09-05T13:14:50.713Z,26.20
2018-09-05T13:17:20.190Z,12.00
2018-09-05T13:19:50.966Z,12.27
2018-09-05T13:22:20.888Z,15.47
2018-09-05T13:24:50.382Z,14.20
2018-09-05T13:27:19.325Z,20.57
2018-09-05T13:29:49.445Z,13.80
2018-09-05T13:32:19.338Z,11.57
2018-09-05T13:34:49.157Z,12.30
2018-09-05T13:37:18.422Z,12.73
2018-09-05T13:39:48.386Z,12.63
2018-09-05T13:42:18.463Z,25.10
2018-09-05T13:44:47.559Z,12.80
2018-09-05T13:47:16.578Z,12.10
2018-09-05T13:49:46.366Z,11.93
2018-09-05T13:52:19.997Z,12.30
2018-09-05T13:54:49.241Z,12.53
2018-09-05T13:57:18.061Z,11.80
2018-09-05T13:59:47.495Z,12.20
2018-09-05T14:02:16.989Z,11.73
2018-09-05T14:04:47.018Z,12.40
2018-09-05T14:07:16.952Z,11.93
2018-09-05T14:09:46.291Z,11.90
2018-09-05T14:12:16.583Z,11.43
2018-09-05T14:14:46.439Z,11.50
2018-09-05T14:17:16.187Z,12.70
2018-09-05T14:19:46.082Z,12.20
2018-09-05T14:22:15.635Z,12.70
2018-09-05T14:24:45.991Z,12.60
2018-09-05T14:27:15.442Z,12.73
2018-09-05T14:29:46.487Z,12.50
2018-09-05T14:32:17.531Z,11.60
2018-09-05T14:34:48.514Z,12.00
2018-09-05T14:37:17.974Z,14.20
2018-09-05T14:39:46.944Z,12.47
2018-09-05T14:42:17.026Z,12.10
2018-09-05T14:44:47.239Z,11.70
2018-09-05T14:47:16.313Z,12.10
2018-09-05T14:49:45.882Z,12.30
2018-09-05T14:52:14.947Z,11.57
2018-09-05T14:54:43.690Z,12.27
2018-09-05T14:57:12.790Z,12.20
2018-09-05T14:59:41.534Z,12.30
2018-09-05T15:02:10.319Z,12.00
2018-09-05T15:04:39.394Z,12.17
2018-09-05T15:07:09.052Z,12.20
2018-09-05T15:09:38.737Z,11.83
2018-09-05T15:12:09.044Z,13.70
2018-09-05T15:14:39.126Z,11.63
2018-09-05T15:17:10.187Z,11.47
2018-09-05T15:19:40.151Z,12.00
2018-09-05T15:22:09.175Z,11.20
2018-09-05T15:24:38.290Z,11.83
2018-09-05T15:27:08.037Z,11.90
2018-09-05T15:29:38.226Z,11.67
2018-09-05T15:32:08.691Z,11.73
2018-09-05T15:34:38.174Z,11.93
2018-09-05T15:37:07.738Z,11.40
2018-09-05T15:39:37.484Z,11.77
2018-09-05T15:42:07.281Z,11.60
2018-09-05T15:44:38.172Z,11.60
2018-09-05T15:47:07.484Z,11.87
2018-09-05T15:49:36.667Z,12.20
2018-09-05T15:52:07.559Z,11.97
2018-09-05T15:54:37.226Z,12.57
2018-09-05T15:57:08.366Z,11.83
2018-09-05T15:59:37.689Z,12.37
2018-09-05T16:02:07.122Z,11.93
2018-09-05T16:04:37.411Z,11.93
2018-09-05T16:07:07.741Z,11.87
2018-09-05T16:09:37.320Z,11.90
2018-09-05T16:12:06.354Z,12.00
2018-09-05T16:14:36.383Z,17.70
2018-09-05T16:17:06.376Z,22.20
2018-09-05T16:19:35.714Z,13.60
2018-09-05T16:22:05.570Z,12.30
2018-09-05T16:24:35.451Z,11.70
2018-09-05T16:27:04.770Z,12.30
2018-09-05T16:29:34.124Z,13.17
2018-09-05T16:32:03.623Z,13.27
2018-09-05T16:34:33.356Z,11.50
2018-09-05T16:37:02.989Z,11.73
2018-09-05T16:39:31.987Z,11.83
2018-09-05T16:42:02.264Z,12.30
2018-09-05T16:44:32.254Z,12.40
2018-09-05T16:47:01.455Z,12.47
2018-09-05T16:49:31.153Z,14.37
2018-09-05T16:52:00.284Z,12.57
2018-09-05T16:54:29.332Z,12.10
2018-09-05T16:57:00.089Z,11.90
2018-09-05T16:59:29.351Z,13.10
2018-09-05T17:01:59.350Z,12.27
2018-09-05T17:04:28.672Z,12.50
2018-09-05T17:06:58.452Z,13.00
2018-09-05T17:09:27.403Z,12.50
2018-09-05T17:11:56.461Z,12.40
2018-09-05T17:14:25.357Z,12.33
2018-09-05T17:16:54.472Z,11.90
2018-09-05T17:19:23.455Z,12.03
2018-09-05T17:21:52.389Z,12.23
2018-09-05T17:24:23.137Z,13.23
2018-09-05T17:26:52.253Z,12.70
2018-09-05T17:29:22.015Z,11.80
2018-09-05T17:31:51.098Z,12.33
2018-09-05T17:34:20.367Z,12.60
2018-09-05T17:36:49.603Z,12.03
2018-09-05T17:39:19.274Z,12.80
2018-09-05T17:41:48.377Z,12.50
2018-09-05T17:44:19.321Z,12.20
2018-09-05T17:46:48.605Z,12.40
2018-09-05T17:49:18.445Z,12.93
2018-09-05T17:51:48.840Z,13.10
2018-09-05T17:54:18.241Z,12.40
2018-09-05T17:56:47.331Z,12.37
2018-09-05T17:59:16.504Z,13.17
2018-09-05T18:01:46.522Z,13.40
2018-09-05T18:04:16.161Z,12.87
2018-09-05T18:06:46.323Z,12.60
2018-09-05T18:09:15.641Z,12.83
2018-09-05T18:11:44.955Z,12.20
2018-09-05T18:14:14.265Z,12.00
2018-09-05T18:16:47.209Z,11.97
2018-09-05T18:19:17.500Z,12.10
2018-09-05T18:21:47.043Z,12.50
2018-09-05T18:24:16.516Z,13.80
2018-09-05T18:26:45.517Z,12.83
2018-09-05T18:29:14.761Z,12.40
2018-09-05T18:31:44.163Z,12.90
2018-09-05T18:34:14.323Z,12.70
2018-09-05T18:36:43.296Z,11.53
2018-09-05T18:39:13.132Z,12.37
2018-09-05T18:41:42.160Z,12.40
2018-09-05T18:44:12.134Z,11.90
2018-09-05T18:46:42.699Z,12.00
2018-09-05T18:49:12.555Z,12.60
2018-09-05T18:51:42.919Z,12.13
2018-09-05T18:54:12.305Z,11.93
2018-09-05T18:56:43.008Z,20.27
2018-09-05T18:59:12.875Z,13.30
2018-09-05T19:01:43.064Z,12.70
2018-09-05T19:04:12.369Z,13.03
2018-09-05T19:06:42.157Z,12.13
2018-09-05T19:09:12.949Z,12.70
2018-09-05T19:11:43.733Z,12.30
2018-09-05T19:14:13.251Z,11.93
2018-09-05T19:16:42.826Z,12.07
2018-09-05T19:19:11.872Z,12.47
2018-09-05T19:21:41.317Z,12.00
2018-09-05T19:24:11.795Z,12.27
2018-09-05T19:26:41.908Z,12.00
2018-09-05T19:29:11.554Z,12.27
2018-09-05T19:31:41.329Z,12.17
2018-09-05T19:34:10.716Z,12.57
2018-09-05T19:36:39.845Z,12.13
2018-09-05T19:39:10.428Z,12.60
2018-09-05T19:41:39.819Z,12.27
2018-09-05T19:44:09.011Z,12.33
2018-09-05T19:46:38.126Z,12.00
2018-09-05T19:49:07.451Z,12.37
2018-09-05T19:51:36.401Z,12.23
2018-09-05T19:54:06.252Z,12.87
2018-09-05T19:56:35.759Z,12.03
2018-09-05T19:59:05.744Z,13.20
2018-09-05T20:01:35.458Z,15.07
2018-09-05T20:04:05.027Z,12.77
2018-09-05T20:06:34.107Z,13.47
2018-09-05T20:09:03.105Z,12.93
2018-09-05T20:11:33.552Z,12.80
2018-09-05T20:14:03.096Z,12.80
2018-09-05T20:16:33.538Z,12.30
2018-09-05T20:19:02.775Z,13.30
2018-09-05T20:21:32.118Z,12.83
2018-09-05T20:24:01.189Z,12.83
2018-09-05T20:26:31.869Z,13.13
2018-09-05T20:29:01.922Z,13.00
2018-09-05T20:31:30.766Z,13.13
2018-09-05T20:33:59.895Z,12.30
2018-09-05T20:36:30.193Z,12.90
2018-09-05T20:38:59.740Z,13.03
2018-09-05T20:41:29.767Z,13.10
2018-09-05T20:44:00.725Z,13.40
2018-09-05T20:46:30.185Z,12.17
2018-09-05T20:48:59.538Z,35.10
2018-09-05T20:51:28.815Z,17.13
2018-09-05T20:53:59.540Z,13.03
2018-09-05T20:56:28.610Z,13.23
2018-09-05T20:59:00.266Z,12.63
2018-09-05T21:01:31.483Z,13.07
2018-09-05T21:04:00.827Z,12.53
2018-09-05T21:06:29.970Z,12.60
2018-09-05T21:08:59.801Z,12.90
2018-09-05T21:11:29.919Z,13.00
2018-09-05T21:13:59.700Z,13.50
2018-09-05T21:16:29.377Z,24.97
2018-09-05T21:18:58.532Z,14.37
2018-09-05T21:21:28.768Z,13.60
2018-09-05T21:23:59.398Z,14.00
2018-09-05T21:26:29.846Z,13.63
2018-09-05T21:28:58.886Z,12.97
2018-09-05T21:31:28.882Z,13.80
2018-09-05T21:33:58.612Z,13.77
2018-09-05T21:36:28.999Z,13.37
2018-09-05T21:38:59.275Z,13.13
2018-09-05T21:41:29.167Z,13.83
2018-09-05T21:43:58.126Z,13.40
2018-09-05T21:46:27.177Z,13.57
2018-09-05T21:48:56.296Z,14.07
2018-09-05T21:51:26.279Z,13.67
2018-09-05T21:53:55.879Z,14.27
2018-09-05T21:56:31.735Z,14.40
2018-09-05T21:59:01.541Z,14.57
2018-09-05T22:01:31.275Z,12.83
2018-09-05T22:04:00.727Z,13.57
2018-09-05T22:06:30.063Z,13.33
2018-09-05T22:08:59.190Z,13.90
2018-09-05T22:11:28.449Z,13.10
2018-09-05T22:13:59.213Z,14.10
2018-09-05T22:16:29.461Z,14.17
2018-09-05T22:18:58.390Z,13.63
2018-09-05T22:21:27.670Z,13.50
2018-09-05T22:23:56.991Z,14.03
2018-09-05T22:26:26.546Z,13.50
2018-09-05T22:28:56.227Z,13.80
2018-09-05T22:31:25.584Z,14.93
2018-09-05T22:33:55.770Z,12.70
2018-09-05T22:36:26.259Z,13.70
2018-09-05T22:38:56.053Z,13.23
2018-09-05T22:41:24.920Z,13.43
2018-09-05T22:44:04.941Z,13.37
2018-09-05T22:46:45.308Z,13.40
2018-09-05T22:51:33.974Z,14.77
2018-09-05T22:55:21.116Z,14.87
2018-09-05T23:00:08.804Z,13.47
2018-09-05T23:04:54.498Z,13.60
2018-09-05T23:08:38.755Z,14.57
2018-09-05T23:12:22.497Z,13.10
2018-09-05T23:15:03.710Z,14.07
2018-09-05T23:17:43.749Z,13.60
2018-09-05T23:21:24.873Z,14.90
2018-09-05T23:24:05.455Z,14.70
2018-09-05T23:26:34.881Z,14.13
2018-09-05T23:29:04.777Z,14.90
2018-09-05T23:31:34.040Z,14.17
2018-09-05T23:34:02.983Z,14.27
2018-09-05T23:36:32.346Z,14.60
2018-09-05T23:39:01.402Z,14.53
2018-09-05T23:41:30.515Z,14.43
2018-09-05T23:44:00.611Z,15.00
2018-09-05T23:46:31.745Z,14.37
2018-09-05T23:49:01.158Z,14.90
2018-09-05T23:51:30.420Z,15.33
2018-09-05T23:54:00.504Z,14.37
2018-09-05T23:56:30.079Z,15.10
2018-09-05T23:59:00.631Z,14.40
